Skokie, IL (60076)

1:49 PM CST en Diciembre 02, 2016 (GMT -0600)
Skokie | | Change Station

Alt 607 ft 42.04 °N, 87.73 °W | Updated 6 seconds ago

Overcast
Nublado
39.0 ° F
Sensación térmica 39 ° F
N
2.0
Viento Variable Viento desde Este

Hoy
Alta -- | Baja -- ° F
--% Posibilidad de precipitaciones
Ayer
Alta -- | Baja -- ° F
Precip. -- pul
Presión 30.19 pul
Visibilidad 10.0 Millas
Nubes Nublado 3600 ft
Vientos helados 39 ° F
Punto de rocío 29 ° F
Humedad 69%
Precipitaciones 0.00 pul
Espesor de la nieve No disponible.
7:01 AM 4:19 PM
Creciente, 10% visible
METAR KORD 021851Z 34010KT 10SM OVC036 04/M03 A3017 RMK AO2 SLP222 T00391028
Presión 30.19 pul
Visibilidad 10.0 Millas
Nubes Nublado 3600 ft
Vientos helados 39 ° F
Punto de rocío 29 ° F
Humedad 69%
Precipitaciones 0.00 pul
Espesor de la nieve No disponible.
7:01 AM 4:19 PM
Creciente, 10% visible
METAR KORD 021851Z 34010KT 10SM OVC036 04/M03 A3017 RMK AO2 SLP222 T00391028

10-Day Weather Forecast

Almanac

Astronomía

Dec. 02, 2016 Salida Puesta
Hora real
Crepúsculo civil
Crepúsculo náutico
Crepúsculo astronómico
Luna
Horas de luz
Horas de luz
Tomorrow will be .
, % of the Moon is Illuminated

Extremos de hoy

Máximos del estado Bajos del estado

Community

WunderPhotos

Upload Photos

1,955,344 ¡fotos cargadas!

WunderBlog® & News

Nearby

Calidad del aire

  Calidad del aire Índice AQ Contaminante
Not available.

Grosos de nieve

Estación Profundido Altura

Actividad de terremotos

Ciudad Distance Mag. Tiempo y dato
Magnitud mínima muestra es 2,5.

Temperaturas de aguas costeras

Lugar Temperatura

Stations

Estaciones meteorológicas cercanas

Ubicación de la estación Temp. Vientos helados Punto de rocío Humedad Viento Precip. Alt Actualizado Tipo
                   

Watches & Warnings

There are currently no watches in effect.